createdAt,value
2023-01-09T00:01:34.673Z,1.60
2023-01-09T00:04:03.870Z,1.50
2023-01-09T00:06:32.109Z,2.78
2023-01-09T00:09:00.465Z,2.63
2023-01-09T00:11:28.875Z,3.30
2023-01-09T00:13:57.072Z,1.17
2023-01-09T00:16:25.361Z,2.03
2023-01-09T00:18:55.238Z,3.08
2023-01-09T00:21:23.441Z,1.70
2023-01-09T00:23:54.810Z,1.90
2023-01-09T00:26:23.316Z,2.67
2023-01-09T00:28:54.183Z,3.05
2023-01-09T00:31:22.749Z,1.52
2023-01-09T00:34:03.621Z,1.00
2023-01-09T00:36:31.869Z,1.60
2023-01-09T00:39:00.144Z,2.30
2023-01-09T00:41:35.361Z,0.90
2023-01-09T00:44:07.651Z,2.83
2023-01-09T00:46:40.058Z,1.30
2023-01-09T00:49:10.622Z,2.03
2023-01-09T00:51:40.483Z,1.20
2023-01-09T00:54:10.145Z,4.00
2023-01-09T00:56:38.607Z,0.77
2023-01-09T00:59:08.492Z,1.00
2023-01-09T01:01:36.929Z,1.30
2023-01-09T01:04:25.484Z,0.80
2023-01-09T01:07:12.250Z,1.80
2023-01-09T01:09:40.670Z,1.50
2023-01-09T01:12:08.873Z,1.00
2023-01-09T01:14:38.931Z,1.10
2023-01-09T01:17:08.238Z,1.25
2023-01-09T01:19:37.388Z,0.90
2023-01-09T01:22:06.980Z,0.90
2023-01-09T01:24:35.231Z,0.60
2023-01-09T01:27:03.665Z,1.10
2023-01-09T01:29:31.942Z,0.90
2023-01-09T01:32:00.291Z,0.90
2023-01-09T01:34:29.991Z,0.90
2023-01-09T01:36:58.197Z,1.20
2023-01-09T01:39:27.829Z,1.20
2023-01-09T01:41:56.179Z,0.80
2023-01-09T01:45:13.060Z,0.80
2023-01-09T01:47:50.202Z,2.30
2023-01-09T01:50:24.458Z,2.50
2023-01-09T01:52:57.944Z,1.02
2023-01-09T01:55:27.612Z,0.80
2023-01-09T01:58:01.628Z,0.70
2023-01-09T02:00:33.761Z,0.68
2023-01-09T02:03:03.303Z,0.77
2023-01-09T02:05:32.279Z,0.90
2023-01-09T02:08:00.531Z,1.08
2023-01-09T02:10:30.113Z,1.27
2023-01-09T02:12:58.621Z,1.00
2023-01-09T02:15:30.865Z,1.40
2023-01-09T02:18:23.506Z,1.47
2023-01-09T02:20:58.434Z,1.60
2023-01-09T02:23:56.323Z,0.70
2023-01-09T02:26:59.855Z,1.45
2023-01-09T02:29:46.179Z,0.80
2023-01-09T02:32:26.604Z,1.40
2023-01-09T02:35:04.026Z,1.20
2023-01-09T02:37:39.230Z,0.80
2023-01-09T02:40:16.930Z,0.90
2023-01-09T02:42:46.777Z,0.90
2023-01-09T02:45:15.050Z,0.80
2023-01-09T02:47:46.801Z,1.00
2023-01-09T02:50:20.543Z,0.90
2023-01-09T02:53:12.584Z,0.80
2023-01-09T02:55:55.464Z,0.90
2023-01-09T02:58:40.919Z,0.80
2023-01-09T03:01:23.254Z,1.50
2023-01-09T03:04:02.337Z,1.48
2023-01-09T03:06:35.862Z,3.13
2023-01-09T03:09:09.811Z,0.95
2023-01-09T03:11:45.133Z,1.00
2023-01-09T03:14:16.745Z,0.80
2023-01-09T03:16:47.542Z,1.17
2023-01-09T03:19:19.216Z,1.00
2023-01-09T03:21:48.440Z,1.83
2023-01-09T03:24:16.694Z,1.40
2023-01-09T03:26:45.086Z,1.17
2023-01-09T03:29:13.282Z,2.10
2023-01-09T03:31:41.505Z,1.10
2023-01-09T03:34:09.777Z,3.30
2023-01-09T03:36:39.418Z,1.80
2023-01-09T03:39:07.980Z,1.77
2023-01-09T03:41:36.233Z,1.85
2023-01-09T03:44:04.471Z,1.15
2023-01-09T03:46:32.733Z,2.60
2023-01-09T03:49:00.970Z,2.25
2023-01-09T03:51:29.838Z,1.30
2023-01-09T03:53:59.488Z,1.30
2023-01-09T03:56:27.673Z,1.58
2023-01-09T03:58:56.063Z,2.80
2023-01-09T04:01:24.437Z,1.50
2023-01-09T04:03:52.741Z,4.40
2023-01-09T04:06:20.988Z,2.20
2023-01-09T04:08:49.182Z,2.20
2023-01-09T04:11:18.763Z,3.55
2023-01-09T04:13:46.977Z,5.00
2023-01-09T04:16:15.312Z,2.50
2023-01-09T04:18:43.644Z,3.42
2023-01-09T04:21:11.889Z,1.60
2023-01-09T04:23:40.104Z,3.88
2023-01-09T04:26:08.337Z,1.50
2023-01-09T04:28:38.040Z,2.35
2023-01-09T04:31:06.509Z,3.20
2023-01-09T04:33:34.753Z,2.00
2023-01-09T04:36:03.043Z,3.10
2023-01-09T04:38:31.308Z,2.10
2023-01-09T04:40:59.557Z,1.70
2023-01-09T04:43:27.770Z,2.35
2023-01-09T04:45:57.732Z,4.00
2023-01-09T04:48:25.966Z,3.20
2023-01-09T04:50:54.209Z,3.50
2023-01-09T04:53:22.375Z,1.83
2023-01-09T04:55:50.575Z,6.65
2023-01-09T04:58:18.767Z,1.80
2023-01-09T05:00:46.967Z,1.60
2023-01-09T05:03:16.594Z,3.20
2023-01-09T05:05:45.450Z,2.00
2023-01-09T05:08:13.650Z,2.40
2023-01-09T05:10:41.850Z,5.47
2023-01-09T05:13:10.050Z,4.28
2023-01-09T05:15:38.301Z,3.58
2023-01-09T05:18:06.679Z,3.15
2023-01-09T05:20:36.299Z,3.60
2023-01-09T05:23:04.720Z,4.50
2023-01-09T05:25:32.942Z,1.80
2023-01-09T05:28:01.479Z,5.72
2023-01-09T05:30:29.838Z,1.40
2023-01-09T05:32:58.083Z,2.67
2023-01-09T05:35:26.373Z,3.25
2023-01-09T05:37:56.713Z,6.20
2023-01-09T05:40:32.067Z,5.88
2023-01-09T05:43:00.572Z,3.60
2023-01-09T05:45:29.022Z,6.30
2023-01-09T05:47:57.516Z,5.40
2023-01-09T05:50:25.707Z,3.47
2023-01-09T05:52:55.295Z,3.38
2023-01-09T05:55:23.556Z,5.50
2023-01-09T05:57:51.739Z,6.40
2023-01-09T06:00:20.946Z,4.40
2023-01-09T06:02:49.195Z,6.03
2023-01-09T06:05:17.793Z,5.70
2023-01-09T06:07:46.034Z,6.32
2023-01-09T06:10:16.629Z,3.70
2023-01-09T06:12:48.819Z,9.43
2023-01-09T06:15:17.373Z,3.53
2023-01-09T06:17:45.923Z,4.95
2023-01-09T06:20:14.434Z,5.40
2023-01-09T06:22:44.771Z,2.83
2023-01-09T06:25:13.608Z,7.32
2023-01-09T06:27:43.407Z,3.80
2023-01-09T06:30:12.821Z,2.33
2023-01-09T06:32:41.125Z,4.10
2023-01-09T06:35:10.173Z,2.10
2023-01-09T06:37:38.468Z,7.35
2023-01-09T06:40:07.852Z,4.05
2023-01-09T06:42:36.166Z,7.70
2023-01-09T06:45:06.638Z,6.33
2023-01-09T06:47:34.835Z,7.80
2023-01-09T06:50:04.172Z,7.28
2023-01-09T06:52:32.445Z,8.27
2023-01-09T06:55:00.720Z,4.18
2023-01-09T06:57:29.956Z,6.53
2023-01-09T06:59:58.460Z,4.18
2023-01-09T07:02:28.261Z,4.63
2023-01-09T07:04:56.574Z,3.17
2023-01-09T07:07:24.920Z,4.60
2023-01-09T07:09:53.206Z,6.83
2023-01-09T07:12:21.488Z,3.57
2023-01-09T07:14:49.663Z,2.57
2023-01-09T07:17:18.451Z,3.53
2023-01-09T07:19:48.194Z,4.75
2023-01-09T07:22:16.500Z,1.63
2023-01-09T07:24:45.024Z,2.95
2023-01-09T07:27:13.381Z,2.35
2023-01-09T07:29:41.597Z,3.42
2023-01-09T07:32:09.842Z,2.90
2023-01-09T07:34:38.064Z,3.83
2023-01-09T07:37:07.681Z,2.47
2023-01-09T07:39:35.977Z,2.00
2023-01-09T07:42:04.177Z,4.20
2023-01-09T07:44:32.387Z,4.30
2023-01-09T07:47:00.547Z,5.95
2023-01-09T07:49:28.799Z,3.47
2023-01-09T07:51:57.349Z,5.30
2023-01-09T07:54:26.941Z,2.20
2023-01-09T07:56:56.117Z,1.05
2023-01-09T07:59:24.862Z,5.35
2023-01-09T08:01:53.081Z,4.20
2023-01-09T08:04:21.279Z,3.30
2023-01-09T08:06:49.577Z,1.80
2023-01-09T08:09:18.339Z,4.67
2023-01-09T08:11:47.944Z,1.65
2023-01-09T08:14:16.475Z,6.43
2023-01-09T08:16:45.132Z,1.90
2023-01-09T08:19:13.333Z,6.63
2023-01-09T08:21:41.556Z,1.90
2023-01-09T08:24:11.169Z,3.40
2023-01-09T08:26:39.726Z,3.70
2023-01-09T08:29:09.379Z,2.90
2023-01-09T08:31:37.641Z,4.20
2023-01-09T08:34:05.872Z,1.60
2023-01-09T08:36:34.115Z,2.17
2023-01-09T08:39:02.359Z,3.00
2023-01-09T08:41:48.233Z,3.70
2023-01-09T08:44:34.652Z,3.30
2023-01-09T08:47:08.617Z,7.03
2023-01-09T08:49:38.753Z,3.03
2023-01-09T08:52:07.882Z,3.20
2023-01-09T08:54:38.825Z,4.40
2023-01-09T08:57:07.502Z,2.90
2023-01-09T08:59:37.081Z,1.30
2023-01-09T09:02:05.316Z,1.70
2023-01-09T09:04:33.621Z,1.50
2023-01-09T09:07:02.313Z,1.20
2023-01-09T09:09:30.667Z,1.50
2023-01-09T09:11:58.895Z,4.25
2023-01-09T09:14:59.158Z,2.30
2023-01-09T09:17:29.025Z,4.63
2023-01-09T09:19:57.218Z,2.03
2023-01-09T09:22:25.502Z,1.55
2023-01-09T09:24:53.805Z,3.78
2023-01-09T09:27:22.254Z,2.20
2023-01-09T09:29:50.432Z,3.55
2023-01-09T09:32:18.666Z,4.18
2023-01-09T09:34:48.278Z,1.98
2023-01-09T09:37:16.566Z,2.10
2023-01-09T09:39:44.793Z,2.58
2023-01-09T09:42:57.166Z,2.10
2023-01-09T09:45:41.924Z,2.58
2023-01-09T09:48:23.825Z,4.93
2023-01-09T09:51:26.659Z,3.30
2023-01-09T09:54:00.631Z,3.08
2023-01-09T09:56:33.457Z,2.50
2023-01-09T09:59:05.263Z,1.63
2023-01-09T10:01:41.185Z,3.40
2023-01-09T10:04:14.925Z,1.80
2023-01-09T10:06:46.643Z,2.40
2023-01-09T10:09:24.354Z,6.50
2023-01-09T10:12:00.386Z,5.70
2023-01-09T10:14:28.834Z,4.43
2023-01-09T10:17:14.060Z,2.92
2023-01-09T10:20:11.891Z,2.63
2023-01-09T10:22:51.810Z,1.30
2023-01-09T10:25:27.228Z,2.90
2023-01-09T10:28:14.185Z,4.00
2023-01-09T10:30:45.702Z,4.15
2023-01-09T10:33:36.164Z,4.30
2023-01-09T10:36:30.376Z,2.47
2023-01-09T10:39:04.326Z,4.60
2023-01-09T10:41:37.379Z,5.70
2023-01-09T10:44:09.280Z,3.08
2023-01-09T10:46:42.643Z,2.77
2023-01-09T10:49:15.489Z,3.90
2023-01-09T10:51:48.879Z,6.10
2023-01-09T10:54:22.203Z,4.45
2023-01-09T10:56:56.354Z,3.92
2023-01-09T10:59:24.925Z,4.78
2023-01-09T11:01:54.582Z,6.95
2023-01-09T11:04:27.714Z,5.70
2023-01-09T11:07:01.086Z,5.57
2023-01-09T11:09:59.071Z,3.25
2023-01-09T11:12:29.049Z,3.95
2023-01-09T11:14:57.635Z,4.85
2023-01-09T11:17:28.346Z,8.77
2023-01-09T11:20:04.859Z,6.72
2023-01-09T11:22:44.786Z,5.45
2023-01-09T11:25:17.143Z,2.42
2023-01-09T11:27:45.929Z,3.45
2023-01-09T11:30:27.887Z,2.97
2023-01-09T11:32:57.865Z,4.82
2023-01-09T11:35:33.769Z,3.47
2023-01-09T11:38:06.734Z,3.63
2023-01-09T11:40:46.446Z,3.75
2023-01-09T11:43:19.351Z,2.53
2023-01-09T11:46:00.638Z,3.35
2023-01-09T11:48:36.271Z,3.90
2023-01-09T11:51:08.113Z,6.18
2023-01-09T11:53:56.677Z,2.50
2023-01-09T11:56:26.416Z,3.20
2023-01-09T11:58:54.712Z,4.13
2023-01-09T12:01:50.607Z,2.20
2023-01-09T12:04:28.828Z,4.50
2023-01-09T12:07:26.408Z,4.10
2023-01-09T12:10:04.286Z,2.42
2023-01-09T12:12:43.279Z,6.72
2023-01-09T12:15:25.816Z,3.28
2023-01-09T12:18:23.628Z,4.03
2023-01-09T12:21:18.064Z,4.20
2023-01-09T12:24:01.478Z,5.35
2023-01-09T12:26:34.051Z,5.60
2023-01-09T12:29:25.021Z,3.37
2023-01-09T12:32:14.302Z,2.72
2023-01-09T12:34:59.232Z,2.40
2023-01-09T12:38:02.718Z,3.28
2023-01-09T12:40:44.795Z,4.90
2023-01-09T12:43:21.418Z,6.70
2023-01-09T12:46:04.340Z,3.17
2023-01-09T12:48:46.860Z,3.55
2023-01-09T12:51:32.541Z,2.00
2023-01-09T12:54:04.742Z,4.63
2023-01-09T12:56:37.437Z,2.50
2023-01-09T12:59:19.640Z,2.95
2023-01-09T13:01:51.053Z,4.80
2023-01-09T13:04:25.468Z,4.27
2023-01-09T13:06:58.992Z,4.10
2023-01-09T13:09:33.832Z,1.55
2023-01-09T13:12:09.141Z,3.50
2023-01-09T13:14:49.623Z,3.40
2023-01-09T13:17:23.204Z,6.13
2023-01-09T13:19:53.198Z,2.30
2023-01-09T13:22:24.292Z,4.90
2023-01-09T13:25:20.455Z,9.27
2023-01-09T13:27:56.411Z,3.80
2023-01-09T13:30:46.852Z,2.67
2023-01-09T13:33:21.938Z,2.50
2023-01-09T13:35:52.319Z,5.53
2023-01-09T13:38:23.951Z,2.10
2023-01-09T13:41:21.882Z,2.67
2023-01-09T13:43:56.363Z,2.78
2023-01-09T13:46:32.410Z,3.30
2023-01-09T13:49:03.681Z,4.40
2023-01-09T13:51:56.548Z,5.03
2023-01-09T13:55:04.337Z,2.90
2023-01-09T13:57:34.914Z,8.85
2023-01-09T14:00:44.507Z,4.03
2023-01-09T14:03:22.016Z,5.22
2023-01-09T14:06:16.287Z,3.70
2023-01-09T14:08:46.614Z,2.50
2023-01-09T14:11:24.131Z,3.60
2023-01-09T14:14:08.226Z,17.70
2023-01-09T14:16:38.189Z,4.20
2023-01-09T14:19:21.008Z,7.10
2023-01-09T14:21:54.415Z,4.95
2023-01-09T14:24:27.366Z,4.40
2023-01-09T14:26:58.137Z,7.47
2023-01-09T14:29:41.094Z,6.97
2023-01-09T14:32:46.948Z,12.97
2023-01-09T14:35:26.663Z,20.60
2023-01-09T14:38:05.866Z,7.10
2023-01-09T14:40:35.137Z,5.53
2023-01-09T14:43:24.588Z,13.07
2023-01-09T14:45:54.714Z,16.15
2023-01-09T14:48:24.531Z,4.70
2023-01-09T14:50:56.045Z,3.97
2023-01-09T14:53:28.241Z,7.20
2023-01-09T14:55:57.949Z,5.15
2023-01-09T14:58:28.317Z,10.82
2023-01-09T15:01:01.717Z,11.63
2023-01-09T15:03:35.529Z,4.25
2023-01-09T15:06:04.272Z,7.28
2023-01-09T15:08:34.363Z,7.95
2023-01-09T15:11:05.658Z,7.40
2023-01-09T15:13:37.770Z,8.57
2023-01-09T15:16:07.534Z,8.33
2023-01-09T15:18:42.016Z,9.25
2023-01-09T15:21:20.163Z,8.07
2023-01-09T15:23:49.930Z,7.88
2023-01-09T15:26:27.194Z,9.77
2023-01-09T15:29:02.627Z,8.45
2023-01-09T15:31:31.250Z,10.50
2023-01-09T15:33:59.579Z,11.52
2023-01-09T15:36:31.007Z,7.13
2023-01-09T15:39:01.189Z,7.83
2023-01-09T15:41:48.786Z,7.18
2023-01-09T15:44:20.522Z,7.13
2023-01-09T15:46:51.848Z,4.30
2023-01-09T15:49:20.961Z,5.10
2023-01-09T15:51:50.632Z,6.70
2023-01-09T15:54:30.740Z,5.97
2023-01-09T15:57:35.612Z,5.07
2023-01-09T16:00:46.320Z,10.77
2023-01-09T16:03:20.359Z,14.80
2023-01-09T16:05:53.084Z,8.65
2023-01-09T16:08:25.163Z,28.40
2023-01-09T16:10:57.521Z,15.80
2023-01-09T16:13:28.438Z,8.68
2023-01-09T16:15:58.841Z,8.32
2023-01-09T16:18:33.400Z,7.85
2023-01-09T16:21:23.760Z,7.72
2023-01-09T16:23:57.465Z,5.90
2023-01-09T16:26:29.080Z,6.15
2023-01-09T16:28:58.110Z,8.45
2023-01-09T16:31:29.033Z,9.10
2023-01-09T16:34:06.380Z,9.18
2023-01-09T16:36:36.164Z,10.98
2023-01-09T16:39:05.162Z,17.88
2023-01-09T16:41:52.291Z,8.98
2023-01-09T16:44:20.463Z,6.50
2023-01-09T16:46:48.768Z,9.30
2023-01-09T16:49:19.763Z,12.48
2023-01-09T16:51:48.507Z,7.05
2023-01-09T16:54:17.143Z,8.95
2023-01-09T16:56:49.554Z,12.35
2023-01-09T16:59:21.602Z,7.57
2023-01-09T17:01:50.080Z,7.30
2023-01-09T17:04:20.123Z,11.23
2023-01-09T17:06:49.509Z,15.10
2023-01-09T17:09:19.875Z,21.05
2023-01-09T17:11:49.715Z,10.67
2023-01-09T17:14:18.087Z,9.32
2023-01-09T17:16:46.971Z,8.50
2023-01-09T17:19:23.599Z,8.20
2023-01-09T17:21:51.845Z,7.00
2023-01-09T17:24:37.379Z,10.10
2023-01-09T17:27:24.306Z,15.63
2023-01-09T17:29:52.597Z,11.65
2023-01-09T17:32:21.403Z,8.10
2023-01-09T17:34:49.717Z,10.30
2023-01-09T17:37:19.872Z,11.90
2023-01-09T17:39:48.213Z,7.30
2023-01-09T17:42:17.863Z,6.33
2023-01-09T17:44:46.055Z,9.30
2023-01-09T17:47:16.036Z,9.93
2023-01-09T17:49:44.351Z,9.00
2023-01-09T17:52:12.568Z,8.40
2023-01-09T17:54:41.076Z,10.60
2023-01-09T17:57:15.235Z,7.68
2023-01-09T17:59:45.653Z,13.35
2023-01-09T18:02:20.091Z,9.05
2023-01-09T18:04:48.463Z,8.55
2023-01-09T18:07:17.771Z,7.00
2023-01-09T18:09:46.343Z,12.73
2023-01-09T18:12:14.500Z,10.35
2023-01-09T18:14:44.245Z,9.68
2023-01-09T18:17:14.092Z,9.80
2023-01-09T18:19:42.500Z,7.93
2023-01-09T18:22:10.703Z,9.37
2023-01-09T18:24:39.087Z,10.70
2023-01-09T18:27:07.328Z,6.05
2023-01-09T18:29:35.515Z,10.55
2023-01-09T18:32:05.478Z,2.63
2023-01-09T18:34:33.837Z,5.38
2023-01-09T18:37:02.109Z,5.28
2023-01-09T18:39:30.510Z,4.30
2023-01-09T18:41:58.757Z,4.00
2023-01-09T18:44:26.967Z,10.13
2023-01-09T18:46:55.213Z,3.75
2023-01-09T18:49:24.858Z,3.60
2023-01-09T18:51:53.173Z,4.25
2023-01-09T18:54:21.461Z,5.03
2023-01-09T18:56:49.821Z,6.88
2023-01-09T18:59:18.014Z,4.88
2023-01-09T19:01:47.343Z,2.55
2023-01-09T19:04:15.865Z,4.90
2023-01-09T19:06:45.740Z,3.58
2023-01-09T19:09:14.220Z,3.60
2023-01-09T19:11:44.341Z,6.47
2023-01-09T19:14:13.170Z,6.13
2023-01-09T19:16:42.405Z,5.38
2023-01-09T19:19:10.874Z,6.65
2023-01-09T19:21:39.254Z,8.20
2023-01-09T19:24:09.193Z,5.55
2023-01-09T19:26:37.753Z,7.65
2023-01-09T19:29:05.994Z,6.70
2023-01-09T19:31:34.792Z,9.30
2023-01-09T19:34:03.134Z,6.03
2023-01-09T19:36:31.440Z,5.93
2023-01-09T19:39:00.982Z,7.10
2023-01-09T19:41:31.759Z,8.93
2023-01-09T19:44:00.979Z,5.87
2023-01-09T19:46:30.716Z,5.28
2023-01-09T19:48:59.131Z,8.40
2023-01-09T19:51:27.315Z,8.40
2023-01-09T19:56:30.199Z,5.80
2023-01-09T19:59:02.171Z,7.68
2023-01-09T20:01:32.024Z,5.28
2023-01-09T20:04:03.265Z,9.18
2023-01-09T20:06:32.059Z,9.23
2023-01-09T20:09:02.218Z,6.60
2023-01-09T20:11:35.798Z,8.57
2023-01-09T20:14:06.254Z,12.27
2023-01-09T20:16:34.575Z,7.07
2023-01-09T20:19:07.406Z,8.90
2023-01-09T20:21:36.495Z,8.75
2023-01-09T20:24:06.499Z,9.85
2023-01-09T20:26:35.608Z,9.85
2023-01-09T20:29:08.809Z,8.07
2023-01-09T20:31:37.871Z,9.60
2023-01-09T20:34:06.509Z,8.07
2023-01-09T20:36:34.904Z,16.10
2023-01-09T20:39:05.968Z,11.85
2023-01-09T20:41:34.976Z,13.15
2023-01-09T20:44:07.070Z,25.05
2023-01-09T20:46:37.951Z,17.05
2023-01-09T20:49:08.601Z,12.60
2023-01-09T20:51:38.096Z,12.95
2023-01-09T20:54:06.693Z,20.17
2023-01-09T20:56:36.128Z,10.70
2023-01-09T20:59:07.161Z,12.20
2023-01-09T21:01:35.570Z,12.82
2023-01-09T21:04:04.321Z,13.45
2023-01-09T21:06:33.210Z,9.60
2023-01-09T21:09:01.666Z,14.10
2023-01-09T21:11:30.045Z,14.18
2023-01-09T21:13:58.469Z,15.00
2023-01-09T21:16:28.230Z,10.88
2023-01-09T21:18:56.699Z,12.77
2023-01-09T21:21:27.606Z,11.02
2023-01-09T21:23:57.680Z,10.60
2023-01-09T21:26:29.142Z,11.75
2023-01-09T21:28:59.483Z,11.73
2023-01-09T21:31:33.695Z,11.30
2023-01-09T21:34:03.356Z,10.52
2023-01-09T21:36:31.927Z,8.82
2023-01-09T21:39:00.676Z,9.23
2023-01-09T21:41:46.172Z,8.75
2023-01-09T21:44:32.597Z,10.98
2023-01-09T21:47:03.385Z,10.55
2023-01-09T21:49:35.064Z,11.25
2023-01-09T21:52:04.657Z,8.88
2023-01-09T21:54:33.546Z,13.45
2023-01-09T21:57:02.746Z,9.25
2023-01-09T21:59:31.062Z,11.23
2023-01-09T22:01:59.533Z,10.07
2023-01-09T22:04:30.551Z,14.50
2023-01-09T22:06:58.879Z,10.23
2023-01-09T22:09:27.227Z,10.95
2023-01-09T22:11:55.549Z,11.02
2023-01-09T22:14:23.965Z,12.23
2023-01-09T22:16:52.235Z,7.38
2023-01-09T22:19:20.705Z,14.52
2023-01-09T22:21:50.577Z,9.57
2023-01-09T22:24:21.669Z,12.52
2023-01-09T22:26:50.059Z,9.38
2023-01-09T22:29:18.690Z,9.68
2023-01-09T22:31:47.850Z,9.25
2023-01-09T22:34:18.713Z,11.77
2023-01-09T22:36:47.917Z,11.80
2023-01-09T22:39:19.790Z,10.20
2023-01-09T22:41:54.524Z,10.75
2023-01-09T22:44:22.815Z,13.93
2023-01-09T22:46:50.991Z,9.17
2023-01-09T22:49:19.241Z,9.80
2023-01-09T22:51:47.668Z,13.63
2023-01-09T22:54:17.406Z,11.90
2023-01-09T22:56:45.630Z,11.52
2023-01-09T22:59:13.833Z,10.20
2023-01-09T23:01:42.145Z,16.17
2023-01-09T23:04:13.449Z,12.65
2023-01-09T23:06:41.688Z,12.20
2023-01-09T23:09:09.907Z,11.45
2023-01-09T23:11:57.052Z,11.15
2023-01-09T23:14:25.255Z,12.45
2023-01-09T23:16:53.523Z,12.77
2023-01-09T23:19:21.761Z,12.57
2023-01-09T23:21:50.230Z,14.02
2023-01-09T23:24:19.652Z,11.57
2023-01-09T23:26:49.789Z,14.10
2023-01-09T23:29:18.000Z,10.70
2023-01-09T23:31:46.711Z,12.77
2023-01-09T23:34:16.509Z,12.38
2023-01-09T23:36:45.106Z,16.80
2023-01-09T23:39:13.534Z,8.07
2023-01-09T23:42:00.323Z,10.60
2023-01-09T23:44:30.330Z,10.75
2023-01-09T23:46:58.953Z,15.05
2023-01-09T23:49:27.122Z,11.48
2023-01-09T23:51:56.528Z,10.85
2023-01-09T23:54:24.802Z,7.38
2023-01-09T23:56:56.495Z,8.43
2023-01-09T23:59:25.157Z,12.65
